sim
Sign-in with your pilot id or email,
or register
Callsign
Passwort

Schedule Details

Flight Number: DLH2483
Departure: London Heathrow Airport (EGLL) at 06:35
Arrival: Munich Airport (EDDM) at 08:20
Route: Lufthansa Passenger Schedule. Enter filed route here before submitting Pirep.

Weather Information
Getting current METAR information for EGLL 211820Z AUTO 27004KT 9999 NCD 21/12 Q1015
Getting current METAR information for EDDM 211820Z 10001KT CAVOK 15/13 Q1016 NOSIG

Schedule Frequency

Route Map